sensor_id;sensor_type;location;lat;lon;timestamp;P1;durP1;ratioP1;P2;durP2;ratioP2
65656;SDS011;57397;50.096;14.404;2022-09-06T00:01:09;3.53;;;3.22;;
65656;SDS011;57397;50.096;14.404;2022-09-06T00:13:09;3.42;;;3.13;;
65656;SDS011;57397;50.096;14.404;2022-09-06T00:16:09;3.45;;;3.15;;
65656;SDS011;57397;50.096;14.404;2022-09-06T00:25:12;4.35;;;3.20;;
65656;SDS011;57397;50.096;14.404;2022-09-06T00:27:38;3.95;;;3.55;;
65656;SDS011;57397;50.096;14.404;2022-09-06T00:43:17;3.67;;;2.92;;
65656;SDS011;57397;50.096;14.404;2022-09-06T01:47:56;3.30;;;2.88;;
65656;SDS011;57397;50.096;14.404;2022-09-06T02:34:24;3.60;;;3.30;;
65656;SDS011;57397;50.096;14.404;2022-09-06T02:51:42;3.17;;;2.88;;
65656;SDS011;57397;50.096;14.404;2022-09-06T02:58:17;3.30;;;3.00;;
65656;SDS011;57397;50.096;14.404;2022-09-06T03:12:21;3.63;;;3.08;;
65656;SDS011;57397;50.096;14.404;2022-09-06T03:24:37;4.45;;;3.00;;
65656;SDS011;57397;50.096;14.404;2022-09-06T03:30:35;3.72;;;3.20;;
65656;SDS011;57397;50.096;14.404;2022-09-06T03:38:42;4.35;;;3.40;;
65656;SDS011;57397;50.096;14.404;2022-09-06T03:41:08;4.68;;;3.00;;
65656;SDS011;57397;50.096;14.404;2022-09-06T03:43:35;3.38;;;3.08;;
65656;SDS011;57397;50.096;14.404;2022-09-06T03:46:00;4.10;;;3.00;;
65656;SDS011;57397;50.096;14.404;2022-09-06T03:48:27;4.10;;;3.15;;
65656;SDS011;57397;50.096;14.404;2022-09-06T03:50:54;4.22;;;3.50;;
65656;SDS011;57397;50.096;14.404;2022-09-06T03:53:20;3.28;;;2.97;;
65656;SDS011;57397;50.096;14.404;2022-09-06T03:55:47;3.55;;;3.10;;
65656;SDS011;57397;50.096;14.404;2022-09-06T03:58:15;3.75;;;3.33;;
65656;SDS011;57397;50.096;14.404;2022-09-06T04:00:41;3.50;;;3.00;;
65656;SDS011;57397;50.096;14.404;2022-09-06T04:03:07;3.80;;;3.10;;
65656;SDS011;57397;50.096;14.404;2022-09-06T04:05:32;3.53;;;3.20;;
65656;SDS011;57397;50.096;14.404;2022-09-06T04:07:58;4.25;;;3.38;;
65656;SDS011;57397;50.096;14.404;2022-09-06T04:10:24;3.92;;;3.08;;
65656;SDS011;57397;50.096;14.404;2022-09-06T04:12:49;5.82;;;3.05;;
65656;SDS011;57397;50.096;14.404;2022-09-06T04:15:14;3.20;;;2.90;;
65656;SDS011;57397;50.096;14.404;2022-09-06T04:17:43;4.18;;;3.20;;
65656;SDS011;57397;50.096;14.404;2022-09-06T04:20:13;3.70;;;3.05;;
65656;SDS011;57397;50.096;14.404;2022-09-06T04:22:39;3.42;;;3.03;;
65656;SDS011;57397;50.096;14.404;2022-09-06T04:25:04;5.43;;;3.17;;
65656;SDS011;57397;50.096;14.404;2022-09-06T04:27:31;3.70;;;3.33;;
65656;SDS011;57397;50.096;14.404;2022-09-06T04:29:57;3.38;;;3.08;;
65656;SDS011;57397;50.096;14.404;2022-09-06T04:32:22;3.53;;;2.97;;
65656;SDS011;57397;50.096;14.404;2022-09-06T04:34:48;4.15;;;3.00;;
65656;SDS011;57397;50.096;14.404;2022-09-06T04:37:13;5.03;;;3.40;;
65656;SDS011;57397;50.096;14.404;2022-09-06T04:39:44;3.63;;;2.90;;
65656;SDS011;57397;50.096;14.404;2022-09-06T04:42:10;3.55;;;3.25;;
65656;SDS011;57397;50.096;14.404;2022-09-06T04:44:36;3.20;;;2.90;;
65656;SDS011;57397;50.096;14.404;2022-09-06T04:47:05;3.30;;;3.00;;
65656;SDS011;57397;50.096;14.404;2022-09-06T04:49:33;3.47;;;3.17;;
65656;SDS011;57397;50.096;14.404;2022-09-06T04:51:59;3.30;;;3.00;;
65656;SDS011;57397;50.096;14.404;2022-09-06T04:54:25;3.70;;;3.20;;
65656;SDS011;57397;50.096;14.404;2022-09-06T04:56:50;3.85;;;2.92;;
65656;SDS011;57397;50.096;14.404;2022-09-06T04:59:15;3.40;;;3.10;;
65656;SDS011;57397;50.096;14.404;2022-09-06T05:01:41;3.28;;;2.97;;
65656;SDS011;57397;50.096;14.404;2022-09-06T05:04:07;3.47;;;3.17;;
65656;SDS011;57397;50.096;14.404;2022-09-06T05:06:32;3.38;;;3.08;;
65656;SDS011;57397;50.096;14.404;2022-09-06T05:08:57;3.58;;;3.00;;
65656;SDS011;57397;50.096;14.404;2022-09-06T05:11:23;3.58;;;2.90;;
65656;SDS011;57397;50.096;14.404;2022-09-06T05:13:49;3.28;;;2.88;;
65656;SDS011;57397;50.096;14.404;2022-09-06T05:16:14;4.70;;;2.95;;
65656;SDS011;57397;50.096;14.404;2022-09-06T05:18:40;3.33;;;3.03;;
65656;SDS011;57397;50.096;14.404;2022-09-06T05:21:06;3.50;;;3.20;;
65656;SDS011;57397;50.096;14.404;2022-09-06T05:23:32;3.20;;;2.90;;
65656;SDS011;57397;50.096;14.404;2022-09-06T05:25:57;3.40;;;3.10;;
65656;SDS011;57397;50.096;14.404;2022-09-06T05:28:23;3.88;;;3.30;;
65656;SDS011;57397;50.096;14.404;2022-09-06T05:30:48;3.75;;;3.22;;
65656;SDS011;57397;50.096;14.404;2022-09-06T05:33:17;3.20;;;2.90;;
65656;SDS011;57397;50.096;14.404;2022-09-06T05:35:45;3.45;;;3.15;;
65656;SDS011;57397;50.096;14.404;2022-09-06T05:38:10;4.40;;;3.20;;
65656;SDS011;57397;50.096;14.404;2022-09-06T05:40:35;5.38;;;3.40;;
65656;SDS011;57397;50.096;14.404;2022-09-06T05:43:01;3.50;;;3.00;;
65656;SDS011;57397;50.096;14.404;2022-09-06T05:45:26;4.13;;;3.20;;
65656;SDS011;57397;50.096;14.404;2022-09-06T05:47:52;3.35;;;2.90;;
65656;SDS011;57397;50.096;14.404;2022-09-06T05:50:17;4.30;;;3.15;;
65656;SDS011;57397;50.096;14.404;2022-09-06T05:52:43;3.42;;;3.03;;
65656;SDS011;57397;50.096;14.404;2022-09-06T05:55:09;3.75;;;2.97;;
65656;SDS011;57397;50.096;14.404;2022-09-06T05:57:34;5.32;;;3.20;;
65656;SDS011;57397;50.096;14.404;2022-09-06T06:00:00;3.53;;;3.00;;
65656;SDS011;57397;50.096;14.404;2022-09-06T06:02:25;3.30;;;3.00;;
65656;SDS011;57397;50.096;14.404;2022-09-06T06:04:51;3.38;;;2.88;;
65656;SDS011;57397;50.096;14.404;2022-09-06T06:07:16;3.63;;;3.00;;
65656;SDS011;57397;50.096;14.404;2022-09-06T06:09:42;3.78;;;2.97;;
65656;SDS011;57397;50.096;14.404;2022-09-06T06:12:08;3.35;;;2.90;;
65656;SDS011;57397;50.096;14.404;2022-09-06T06:14:34;4.38;;;3.10;;
65656;SDS011;57397;50.096;14.404;2022-09-06T06:16:59;3.22;;;2.92;;
65656;SDS011;57397;50.096;14.404;2022-09-06T06:19:25;3.13;;;2.83;;
65656;SDS011;57397;50.096;14.404;2022-09-06T06:21:51;3.40;;;3.10;;
65656;SDS011;57397;50.096;14.404;2022-09-06T06:24:17;3.20;;;2.90;;
65656;SDS011;57397;50.096;14.404;2022-09-06T06:26:42;3.38;;;3.00;;
65656;SDS011;57397;50.096;14.404;2022-09-06T06:29:08;4.13;;;3.03;;
65656;SDS011;57397;50.096;14.404;2022-09-06T06:31:34;5.40;;;3.20;;
65656;SDS011;57397;50.096;14.404;2022-09-06T06:34:00;3.78;;;3.17;;
65656;SDS011;57397;50.096;14.404;2022-09-06T06:36:33;3.42;;;2.97;;
65656;SDS011;57397;50.096;14.404;2022-09-06T06:38:59;6.30;;;3.50;;
65656;SDS011;57397;50.096;14.404;2022-09-06T06:41:27;3.90;;;3.10;;
65656;SDS011;57397;50.096;14.404;2022-09-06T06:43:54;3.72;;;3.10;;
65656;SDS011;57397;50.096;14.404;2022-09-06T06:46:21;3.83;;;3.05;;
65656;SDS011;57397;50.096;14.404;2022-09-06T06:48:48;3.42;;;3.10;;
65656;SDS011;57397;50.096;14.404;2022-09-06T06:51:15;3.85;;;3.10;;
65656;SDS011;57397;50.096;14.404;2022-09-06T06:53:42;3.22;;;2.92;;
65656;SDS011;57397;50.096;14.404;2022-09-06T06:58:57;3.65;;;3.05;;
65656;SDS011;57397;50.096;14.404;2022-09-06T07:01:24;3.50;;;3.20;;
65656;SDS011;57397;50.096;14.404;2022-09-06T07:03:52;3.42;;;3.13;;
65656;SDS011;57397;50.096;14.404;2022-09-06T07:06:18;4.07;;;3.20;;
65656;SDS011;57397;50.096;14.404;2022-09-06T07:08:44;3.67;;;3.15;;
65656;SDS011;57397;50.096;14.404;2022-09-06T07:11:12;3.47;;;3.17;;
65656;SDS011;57397;50.096;14.404;2022-09-06T07:13:39;3.33;;;2.92;;
65656;SDS011;57397;50.096;14.404;2022-09-06T07:16:08;3.63;;;3.05;;
65656;SDS011;57397;50.096;14.404;2022-09-06T07:18:35;5.15;;;3.53;;
65656;SDS011;57397;50.096;14.404;2022-09-06T07:21:14;3.30;;;3.00;;
65656;SDS011;57397;50.096;14.404;2022-09-06T07:23:41;3.50;;;3.20;;
65656;SDS011;57397;50.096;14.404;2022-09-06T07:26:11;3.28;;;2.97;;
65656;SDS011;57397;50.096;14.404;2022-09-06T07:28:43;3.55;;;3.20;;
65656;SDS011;57397;50.096;14.404;2022-09-06T07:31:09;3.25;;;2.95;;
65656;SDS011;57397;50.096;14.404;2022-09-06T07:33:35;3.85;;;3.10;;
65656;SDS011;57397;50.096;14.404;2022-09-06T07:36:01;3.42;;;3.13;;
65656;SDS011;57397;50.096;14.404;2022-09-06T07:38:28;3.47;;;3.17;;
65656;SDS011;57397;50.096;14.404;2022-09-06T07:40:55;3.50;;;3.20;;
65656;SDS011;57397;50.096;14.404;2022-09-06T07:43:22;3.33;;;3.03;;
65656;SDS011;57397;50.096;14.404;2022-09-06T07:45:50;3.40;;;3.10;;
65656;SDS011;57397;50.096;14.404;2022-09-06T07:48:42;3.00;;;2.70;;
65656;SDS011;57397;50.096;14.404;2022-09-06T07:51:16;4.15;;;3.00;;
65656;SDS011;57397;50.096;14.404;2022-09-06T07:53:43;3.97;;;3.15;;
65656;SDS011;57397;50.096;14.404;2022-09-06T07:56:12;3.50;;;3.20;;
65656;SDS011;57397;50.096;14.404;2022-09-06T07:58:38;3.60;;;3.30;;
65656;SDS011;57397;50.096;14.404;2022-09-06T08:04:02;3.50;;;3.20;;
65656;SDS011;57397;50.096;14.404;2022-09-06T08:06:33;3.42;;;3.13;;
65656;SDS011;57397;50.096;14.404;2022-09-06T08:09:00;3.58;;;3.17;;
65656;SDS011;57397;50.096;14.404;2022-09-06T08:11:27;3.40;;;3.10;;
65656;SDS011;57397;50.096;14.404;2022-09-06T08:13:54;3.65;;;3.35;;
65656;SDS011;57397;50.096;14.404;2022-09-06T08:16:21;3.30;;;3.00;;
65656;SDS011;57397;50.096;14.404;2022-09-06T08:18:51;3.70;;;3.30;;
65656;SDS011;57397;50.096;14.404;2022-09-06T08:21:17;3.80;;;3.40;;
65656;SDS011;57397;50.096;14.404;2022-09-06T08:23:51;3.70;;;3.40;;
65656;SDS011;57397;50.096;14.404;2022-09-06T08:26:19;3.75;;;3.35;;
65656;SDS011;57397;50.096;14.404;2022-09-06T08:28:46;3.42;;;3.13;;
65656;SDS011;57397;50.096;14.404;2022-09-06T08:31:13;3.78;;;3.40;;
65656;SDS011;57397;50.096;14.404;2022-09-06T08:33:40;3.90;;;3.20;;
65656;SDS011;57397;50.096;14.404;2022-09-06T08:36:06;3.70;;;3.15;;
65656;SDS011;57397;50.096;14.404;2022-09-06T08:38:32;3.67;;;3.35;;
65656;SDS011;57397;50.096;14.404;2022-09-06T08:44:10;3.45;;;3.15;;
65656;SDS011;57397;50.096;14.404;2022-09-06T08:46:39;3.70;;;3.25;;
65656;SDS011;57397;50.096;14.404;2022-09-06T08:49:23;3.42;;;3.13;;
65656;SDS011;57397;50.096;14.404;2022-09-06T08:57:00;3.88;;;3.40;;
65656;SDS011;57397;50.096;14.404;2022-09-06T08:59:27;3.55;;;3.25;;
65656;SDS011;57397;50.096;14.404;2022-09-06T09:01:57;3.80;;;3.40;;
65656;SDS011;57397;50.096;14.404;2022-09-06T09:04:38;4.32;;;3.40;;
65656;SDS011;57397;50.096;14.404;2022-09-06T09:09:38;3.88;;;3.45;;
65656;SDS011;57397;50.096;14.404;2022-09-06T09:12:04;3.88;;;3.47;;
65656;SDS011;57397;50.096;14.404;2022-09-06T09:14:29;3.72;;;3.38;;
65656;SDS011;57397;50.096;14.404;2022-09-06T09:17:17;3.95;;;3.42;;
65656;SDS011;57397;50.096;14.404;2022-09-06T09:19:47;3.70;;;3.40;;
65656;SDS011;57397;50.096;14.404;2022-09-06T09:22:13;4.05;;;3.38;;
65656;SDS011;57397;50.096;14.404;2022-09-06T09:24:42;3.90;;;3.40;;
65656;SDS011;57397;50.096;14.404;2022-09-06T09:27:08;3.85;;;3.45;;
65656;SDS011;57397;50.096;14.404;2022-09-06T09:34:54;3.92;;;3.53;;
65656;SDS011;57397;50.096;14.404;2022-09-06T09:37:41;3.88;;;3.47;;
65656;SDS011;57397;50.096;14.404;2022-09-06T09:40:28;3.50;;;3.20;;
65656;SDS011;57397;50.096;14.404;2022-09-06T09:42:55;3.65;;;3.35;;
65656;SDS011;57397;50.096;14.404;2022-09-06T09:45:32;3.70;;;3.30;;
65656;SDS011;57397;50.096;14.404;2022-09-06T09:48:00;3.80;;;3.40;;
65656;SDS011;57397;50.096;14.404;2022-09-06T09:50:44;3.88;;;3.47;;
65656;SDS011;57397;50.096;14.404;2022-09-06T09:53:11;3.38;;;3.08;;
65656;SDS011;57397;50.096;14.404;2022-09-06T09:55:38;3.38;;;3.03;;
65656;SDS011;57397;50.096;14.404;2022-09-06T09:58:05;3.80;;;3.40;;
65656;SDS011;57397;50.096;14.404;2022-09-06T10:00:36;3.65;;;3.35;;
65656;SDS011;57397;50.096;14.404;2022-09-06T10:03:14;4.05;;;3.60;;
65656;SDS011;57397;50.096;14.404;2022-09-06T10:05:40;3.83;;;3.47;;
65656;SDS011;57397;50.096;14.404;2022-09-06T10:08:09;3.75;;;3.38;;
65656;SDS011;57397;50.096;14.404;2022-09-06T10:10:38;3.80;;;3.40;;
65656;SDS011;57397;50.096;14.404;2022-09-06T10:13:13;3.80;;;3.40;;
65656;SDS011;57397;50.096;14.404;2022-09-06T10:15:47;3.65;;;3.25;;
65656;SDS011;57397;50.096;14.404;2022-09-06T10:18:15;4.00;;;3.60;;
65656;SDS011;57397;50.096;14.404;2022-09-06T10:21:03;3.75;;;3.40;;
65656;SDS011;57397;50.096;14.404;2022-09-06T10:29:05;3.75;;;3.38;;
65656;SDS011;57397;50.096;14.404;2022-09-06T10:40:41;3.70;;;3.30;;
65656;SDS011;57397;50.096;14.404;2022-09-06T10:43:18;3.75;;;3.45;;
65656;SDS011;57397;50.096;14.404;2022-09-06T10:45:58;3.67;;;3.38;;
65656;SDS011;57397;50.096;14.404;2022-09-06T10:48:31;4.47;;;3.47;;
65656;SDS011;57397;50.096;14.404;2022-09-06T10:51:03;3.67;;;3.38;;
65656;SDS011;57397;50.096;14.404;2022-09-06T10:53:43;3.80;;;3.50;;
65656;SDS011;57397;50.096;14.404;2022-09-06T10:56:19;3.67;;;3.30;;
65656;SDS011;57397;50.096;14.404;2022-09-06T10:58:51;4.40;;;3.35;;
65656;SDS011;57397;50.096;14.404;2022-09-06T11:01:40;3.70;;;3.38;;
65656;SDS011;57397;50.096;14.404;2022-09-06T11:04:22;3.50;;;3.20;;
65656;SDS011;57397;50.096;14.404;2022-09-06T11:07:01;4.10;;;3.70;;
65656;SDS011;57397;50.096;14.404;2022-09-06T11:09:37;3.90;;;3.45;;
65656;SDS011;57397;50.096;14.404;2022-09-06T11:12:08;3.50;;;3.20;;
65656;SDS011;57397;50.096;14.404;2022-09-06T11:14:36;3.92;;;3.53;;
65656;SDS011;57397;50.096;14.404;2022-09-06T11:17:47;4.05;;;3.65;;
65656;SDS011;57397;50.096;14.404;2022-09-06T11:25:37;3.55;;;3.22;;
65656;SDS011;57397;50.096;14.404;2022-09-06T11:28:16;3.80;;;3.35;;
65656;SDS011;57397;50.096;14.404;2022-09-06T11:30:46;4.18;;;3.50;;
65656;SDS011;57397;50.096;14.404;2022-09-06T11:35:52;4.07;;;3.67;;
65656;SDS011;57397;50.096;14.404;2022-09-06T11:38:27;3.85;;;3.50;;
65656;SDS011;57397;50.096;14.404;2022-09-06T11:40:56;4.00;;;3.60;;
65656;SDS011;57397;50.096;14.404;2022-09-06T11:46:07;4.00;;;3.60;;
65656;SDS011;57397;50.096;14.404;2022-09-06T11:48:34;3.55;;;3.25;;
65656;SDS011;57397;50.096;14.404;2022-09-06T11:51:29;3.72;;;3.40;;
65656;SDS011;57397;50.096;14.404;2022-09-06T11:54:10;3.80;;;3.50;;
65656;SDS011;57397;50.096;14.404;2022-09-06T11:57:27;4.10;;;3.70;;
65656;SDS011;57397;50.096;14.404;2022-09-06T12:02:06;3.80;;;3.50;;
65656;SDS011;57397;50.096;14.404;2022-09-06T12:05:20;3.90;;;3.50;;
65656;SDS011;57397;50.096;14.404;2022-09-06T12:13:39;4.00;;;3.50;;
65656;SDS011;57397;50.096;14.404;2022-09-06T12:16:12;3.67;;;3.38;;
65656;SDS011;57397;50.096;14.404;2022-09-06T12:21:08;4.95;;;3.72;;
65656;SDS011;57397;50.096;14.404;2022-09-06T12:26:09;3.60;;;3.30;;
65656;SDS011;57397;50.096;14.404;2022-09-06T12:33:53;3.90;;;3.50;;
65656;SDS011;57397;50.096;14.404;2022-09-06T12:36:29;3.63;;;3.30;;
65656;SDS011;57397;50.096;14.404;2022-09-06T12:38:59;4.20;;;3.80;;
65656;SDS011;57397;50.096;14.404;2022-09-06T12:41:30;4.27;;;3.87;;
65656;SDS011;57397;50.096;14.404;2022-09-06T12:43:57;3.75;;;3.40;;
65656;SDS011;57397;50.096;14.404;2022-09-06T12:46:24;4.03;;;3.63;;
65656;SDS011;57397;50.096;14.404;2022-09-06T12:49:00;4.10;;;3.67;;
65656;SDS011;57397;50.096;14.404;2022-09-06T12:51:28;3.63;;;3.33;;
65656;SDS011;57397;50.096;14.404;2022-09-06T12:53:54;4.22;;;3.80;;
65656;SDS011;57397;50.096;14.404;2022-09-06T12:56:22;4.00;;;3.60;;
65656;SDS011;57397;50.096;14.404;2022-09-06T12:58:49;4.05;;;3.65;;
65656;SDS011;57397;50.096;14.404;2022-09-06T13:06:21;4.40;;;3.75;;
65656;SDS011;57397;50.096;14.404;2022-09-06T13:08:48;4.00;;;3.60;;
65656;SDS011;57397;50.096;14.404;2022-09-06T13:11:33;4.20;;;3.80;;
65656;SDS011;57397;50.096;14.404;2022-09-06T13:14:01;4.07;;;3.67;;
65656;SDS011;57397;50.096;14.404;2022-09-06T13:16:35;4.00;;;3.60;;
65656;SDS011;57397;50.096;14.404;2022-09-06T13:19:10;4.10;;;3.70;;
65656;SDS011;57397;50.096;14.404;2022-09-06T13:21:38;4.05;;;3.65;;
65656;SDS011;57397;50.096;14.404;2022-09-06T13:24:17;3.97;;;3.67;;
65656;SDS011;57397;50.096;14.404;2022-09-06T13:26:47;4.28;;;3.88;;
65656;SDS011;57397;50.096;14.404;2022-09-06T13:31:52;3.85;;;3.45;;
65656;SDS011;57397;50.096;14.404;2022-09-06T13:34:19;4.25;;;3.85;;
65656;SDS011;57397;50.096;14.404;2022-09-06T13:36:52;3.63;;;3.33;;
65656;SDS011;57397;50.096;14.404;2022-09-06T13:39:35;3.92;;;3.53;;
65656;SDS011;57397;50.096;14.404;2022-09-06T13:42:07;3.88;;;3.47;;
65656;SDS011;57397;50.096;14.404;2022-09-06T13:44:34;4.07;;;3.47;;
65656;SDS011;57397;50.096;14.404;2022-09-06T13:47:01;4.05;;;3.65;;
65656;SDS011;57397;50.096;14.404;2022-09-06T13:49:26;4.07;;;3.67;;
65656;SDS011;57397;50.096;14.404;2022-09-06T13:51:52;3.92;;;3.55;;
65656;SDS011;57397;50.096;14.404;2022-09-06T13:54:20;3.55;;;3.25;;
65656;SDS011;57397;50.096;14.404;2022-09-06T13:56:46;3.95;;;3.60;;
65656;SDS011;57397;50.096;14.404;2022-09-06T13:59:13;4.35;;;3.60;;
65656;SDS011;57397;50.096;14.404;2022-09-06T14:01:39;3.88;;;3.58;;
65656;SDS011;57397;50.096;14.404;2022-09-06T14:04:06;4.05;;;3.65;;
65656;SDS011;57397;50.096;14.404;2022-09-06T14:06:31;3.90;;;3.50;;
65656;SDS011;57397;50.096;14.404;2022-09-06T14:09:00;4.38;;;3.50;;
65656;SDS011;57397;50.096;14.404;2022-09-06T14:11:25;3.55;;;3.25;;
65656;SDS011;57397;50.096;14.404;2022-09-06T14:13:51;3.38;;;3.08;;
65656;SDS011;57397;50.096;14.404;2022-09-06T14:16:17;3.92;;;3.53;;
65656;SDS011;57397;50.096;14.404;2022-09-06T14:18:42;3.65;;;3.33;;
65656;SDS011;57397;50.096;14.404;2022-09-06T14:21:09;3.70;;;3.40;;
65656;SDS011;57397;50.096;14.404;2022-09-06T14:23:34;3.92;;;3.58;;
65656;SDS011;57397;50.096;14.404;2022-09-06T14:26:00;3.97;;;3.58;;
65656;SDS011;57397;50.096;14.404;2022-09-06T14:28:27;3.63;;;3.33;;
65656;SDS011;57397;50.096;14.404;2022-09-06T14:30:55;3.83;;;3.53;;
65656;SDS011;57397;50.096;14.404;2022-09-06T14:33:21;4.00;;;3.70;;
65656;SDS011;57397;50.096;14.404;2022-09-06T14:35:46;4.18;;;3.78;;
65656;SDS011;57397;50.096;14.404;2022-09-06T14:38:12;3.67;;;3.38;;
65656;SDS011;57397;50.096;14.404;2022-09-06T14:40:38;3.60;;;3.30;;
65656;SDS011;57397;50.096;14.404;2022-09-06T14:43:05;4.05;;;3.35;;
65656;SDS011;57397;50.096;14.404;2022-09-06T14:45:34;4.10;;;3.70;;
65656;SDS011;57397;50.096;14.404;2022-09-06T14:48:00;3.78;;;3.38;;
65656;SDS011;57397;50.096;14.404;2022-09-06T14:50:26;3.67;;;3.38;;
65656;SDS011;57397;50.096;14.404;2022-09-06T14:52:52;3.80;;;3.45;;
65656;SDS011;57397;50.096;14.404;2022-09-06T14:55:17;3.63;;;3.33;;
65656;SDS011;57397;50.096;14.404;2022-09-06T14:57:43;3.95;;;3.58;;
65656;SDS011;57397;50.096;14.404;2022-09-06T15:00:09;3.90;;;3.50;;
65656;SDS011;57397;50.096;14.404;2022-09-06T15:02:36;4.28;;;3.60;;
65656;SDS011;57397;50.096;14.404;2022-09-06T15:05:01;3.65;;;3.35;;
65656;SDS011;57397;50.096;14.404;2022-09-06T15:07:27;3.60;;;3.30;;
65656;SDS011;57397;50.096;14.404;2022-09-06T15:09:53;3.83;;;3.50;;
65656;SDS011;57397;50.096;14.404;2022-09-06T15:12:19;3.90;;;3.60;;
65656;SDS011;57397;50.096;14.404;2022-09-06T15:14:44;3.83;;;3.47;;
65656;SDS011;57397;50.096;14.404;2022-09-06T15:17:10;3.60;;;3.30;;
65656;SDS011;57397;50.096;14.404;2022-09-06T15:19:35;3.50;;;3.20;;
65656;SDS011;57397;50.096;14.404;2022-09-06T15:22:02;3.88;;;3.47;;
65656;SDS011;57397;50.096;14.404;2022-09-06T15:24:28;3.70;;;3.40;;
65656;SDS011;57397;50.096;14.404;2022-09-06T15:26:54;3.65;;;3.30;;
65656;SDS011;57397;50.096;14.404;2022-09-06T15:29:20;3.80;;;3.40;;
65656;SDS011;57397;50.096;14.404;2022-09-06T15:31:46;3.63;;;3.30;;
65656;SDS011;57397;50.096;14.404;2022-09-06T15:34:14;3.83;;;3.50;;
65656;SDS011;57397;50.096;14.404;2022-09-06T15:36:41;3.72;;;3.42;;
65656;SDS011;57397;50.096;14.404;2022-09-06T15:39:07;4.18;;;3.70;;
65656;SDS011;57397;50.096;14.404;2022-09-06T15:41:33;3.50;;;3.20;;
65656;SDS011;57397;50.096;14.404;2022-09-06T15:44:01;3.88;;;3.58;;
65656;SDS011;57397;50.096;14.404;2022-09-06T15:49:00;3.95;;;3.50;;
65656;SDS011;57397;50.096;14.404;2022-09-06T15:51:26;3.90;;;3.60;;
65656;SDS011;57397;50.096;14.404;2022-09-06T15:53:52;3.65;;;3.35;;
65656;SDS011;57397;50.096;14.404;2022-09-06T15:56:18;3.88;;;3.47;;
65656;SDS011;57397;50.096;14.404;2022-09-06T15:58:43;3.67;;;3.30;;
65656;SDS011;57397;50.096;14.404;2022-09-06T16:01:16;3.53;;;3.22;;
65656;SDS011;57397;50.096;14.404;2022-09-06T16:03:44;3.83;;;3.22;;
65656;SDS011;57397;50.096;14.404;2022-09-06T16:06:12;3.88;;;3.50;;
65656;SDS011;57397;50.096;14.404;2022-09-06T16:08:43;4.10;;;3.40;;
65656;SDS011;57397;50.096;14.404;2022-09-06T16:11:10;3.65;;;3.28;;
65656;SDS011;57397;50.096;14.404;2022-09-06T16:13:37;3.65;;;3.35;;
65656;SDS011;57397;50.096;14.404;2022-09-06T16:16:04;3.50;;;3.20;;
65656;SDS011;57397;50.096;14.404;2022-09-06T16:18:31;3.90;;;3.50;;
65656;SDS011;57397;50.096;14.404;2022-09-06T16:21:02;3.95;;;3.55;;
65656;SDS011;57397;50.096;14.404;2022-09-06T16:23:29;3.60;;;3.30;;
65656;SDS011;57397;50.096;14.404;2022-09-06T16:25:55;3.47;;;3.17;;
65656;SDS011;57397;50.096;14.404;2022-09-06T16:28:20;3.53;;;3.20;;
65656;SDS011;57397;50.096;14.404;2022-09-06T16:30:46;3.45;;;3.15;;
65656;SDS011;57397;50.096;14.404;2022-09-06T16:33:12;3.75;;;3.45;;
65656;SDS011;57397;50.096;14.404;2022-09-06T16:35:38;3.60;;;3.30;;
65656;SDS011;57397;50.096;14.404;2022-09-06T16:38:04;3.58;;;3.20;;
65656;SDS011;57397;50.096;14.404;2022-09-06T16:40:30;3.60;;;3.30;;
65656;SDS011;57397;50.096;14.404;2022-09-06T16:42:56;3.30;;;3.00;;
65656;SDS011;57397;50.096;14.404;2022-09-06T16:45:21;3.38;;;3.08;;
65656;SDS011;57397;50.096;14.404;2022-09-06T16:47:47;3.88;;;3.10;;
65656;SDS011;57397;50.096;14.404;2022-09-06T16:50:12;3.28;;;2.97;;
65656;SDS011;57397;50.096;14.404;2022-09-06T16:52:38;3.70;;;3.10;;
65656;SDS011;57397;50.096;14.404;2022-09-06T16:55:04;3.60;;;3.30;;
65656;SDS011;57397;50.096;14.404;2022-09-06T16:57:30;3.10;;;2.80;;
65656;SDS011;57397;50.096;14.404;2022-09-06T16:59:57;4.20;;;3.25;;
65656;SDS011;57397;50.096;14.404;2022-09-06T17:02:23;3.47;;;3.17;;
65656;SDS011;57397;50.096;14.404;2022-09-06T17:04:48;3.38;;;3.08;;
65656;SDS011;57397;50.096;14.404;2022-09-06T17:07:14;3.35;;;3.05;;
65656;SDS011;57397;50.096;14.404;2022-09-06T17:09:39;4.05;;;3.20;;
65656;SDS011;57397;50.096;14.404;2022-09-06T17:12:05;4.18;;;3.08;;
65656;SDS011;57397;50.096;14.404;2022-09-06T17:14:31;3.70;;;3.40;;
65656;SDS011;57397;50.096;14.404;2022-09-06T17:16:56;3.92;;;3.30;;
65656;SDS011;57397;50.096;14.404;2022-09-06T17:19:34;6.85;;;4.63;;
65656;SDS011;57397;50.096;14.404;2022-09-06T17:22:01;16.27;;;8.15;;
65656;SDS011;57397;50.096;14.404;2022-09-06T17:24:27;36.70;;;16.50;;
65656;SDS011;57397;50.096;14.404;2022-09-06T17:26:53;43.33;;;20.00;;
65656;SDS011;57397;50.096;14.404;2022-09-06T17:29:18;55.92;;;22.77;;
65656;SDS011;57397;50.096;14.404;2022-09-06T17:31:44;57.80;;;26.25;;
65656;SDS011;57397;50.096;14.404;2022-09-06T17:34:09;69.57;;;29.73;;
65656;SDS011;57397;50.096;14.404;2022-09-06T17:36:35;57.00;;;26.08;;
65656;SDS011;57397;50.096;14.404;2022-09-06T17:39:06;65.05;;;27.85;;
65656;SDS011;57397;50.096;14.404;2022-09-06T17:41:39;68.35;;;28.55;;
65656;SDS011;57397;50.096;14.404;2022-09-06T17:44:07;64.63;;;28.42;;
65656;SDS011;57397;50.096;14.404;2022-09-06T17:46:37;59.00;;;25.55;;
65656;SDS011;57397;50.096;14.404;2022-09-06T17:49:03;58.30;;;25.17;;
65656;SDS011;57397;50.096;14.404;2022-09-06T17:51:29;56.75;;;23.85;;
65656;SDS011;57397;50.096;14.404;2022-09-06T17:53:56;56.05;;;25.45;;
65656;SDS011;57397;50.096;14.404;2022-09-06T17:56:22;57.33;;;25.60;;
65656;SDS011;57397;50.096;14.404;2022-09-06T17:58:53;64.70;;;26.48;;
65656;SDS011;57397;50.096;14.404;2022-09-06T18:01:19;61.50;;;26.65;;
65656;SDS011;57397;50.096;14.404;2022-09-06T18:03:46;65.07;;;28.38;;
65656;SDS011;57397;50.096;14.404;2022-09-06T18:06:13;63.35;;;28.45;;
65656;SDS011;57397;50.096;14.404;2022-09-06T18:08:40;62.58;;;27.58;;
65656;SDS011;57397;50.096;14.404;2022-09-06T18:11:08;64.78;;;28.48;;
65656;SDS011;57397;50.096;14.404;2022-09-06T18:13:38;64.18;;;27.52;;
65656;SDS011;57397;50.096;14.404;2022-09-06T18:16:04;62.20;;;26.67;;
65656;SDS011;57397;50.096;14.404;2022-09-06T18:18:30;59.65;;;25.83;;
65656;SDS011;57397;50.096;14.404;2022-09-06T18:20:56;56.05;;;26.15;;
65656;SDS011;57397;50.096;14.404;2022-09-06T18:23:22;59.80;;;24.80;;
65656;SDS011;57397;50.096;14.404;2022-09-06T18:25:54;54.38;;;25.67;;
65656;SDS011;57397;50.096;14.404;2022-09-06T18:28:23;55.67;;;24.63;;
65656;SDS011;57397;50.096;14.404;2022-09-06T18:30:49;53.60;;;23.45;;
65656;SDS011;57397;50.096;14.404;2022-09-06T18:33:15;47.85;;;21.75;;
65656;SDS011;57397;50.096;14.404;2022-09-06T18:35:41;44.78;;;20.02;;
65656;SDS011;57397;50.096;14.404;2022-09-06T18:38:07;49.45;;;22.40;;
65656;SDS011;57397;50.096;14.404;2022-09-06T18:40:36;47.05;;;21.27;;
65656;SDS011;57397;50.096;14.404;2022-09-06T18:43:02;40.28;;;18.85;;
65656;SDS011;57397;50.096;14.404;2022-09-06T18:45:30;39.40;;;18.48;;
65656;SDS011;57397;50.096;14.404;2022-09-06T18:47:57;40.72;;;19.15;;
65656;SDS011;57397;50.096;14.404;2022-09-06T18:50:23;36.67;;;16.67;;
65656;SDS011;57397;50.096;14.404;2022-09-06T18:52:49;36.67;;;15.65;;
65656;SDS011;57397;50.096;14.404;2022-09-06T18:55:14;31.33;;;14.85;;
65656;SDS011;57397;50.096;14.404;2022-09-06T18:57:40;29.58;;;14.50;;
65656;SDS011;57397;50.096;14.404;2022-09-06T19:00:05;30.48;;;14.52;;